PASIPAKT

Guest
Details From PASI - SITKA ROCKY GUTIERREZ
To PAKT - KETCHIKAN INTL
Flight Number -
Tags decoded
Created
Modified
Stats Distance 164 nm / 303 km
Max Altitude 0 ft / 0 m
Waypoints 3
Social Downloads 1
Likes 0
Share VATSIM

Download

Looking for another format? Having issues loading an existing format? Contact us
Advertisement - Login to hide

Notes

Requested: PASI LVD PAKT

Route

PASI LVD PAKT

ID Type Via Altitude Latitude Longitude Leg Dist Tot Dist Heading (true) Name
O PASI APT - 0 ft / 0 m 57.04713˚ -135.36160˚ - 0 nm - SITKA ROCKY GUTIERREZ
LVD VOR - 0 ft / 0 m 56.46772˚ -133.08311˚ 82 nm 82 nm 114° / 116° LEVEL ISLAND VOR-DME
O PAKT APT - 0 ft / 0 m 55.35554˚ -131.71374˚ 81 nm 163 nm 145° / 146° KETCHIKAN INTL

Altitude Profile

Advertisement - Login to hide

Weather


0- 5 10 15 20 25 30 35+ Temperature / ° C

Clouds and Precipitation
Forecast for 2017-12-19 00:00 UTC. Updated 2 hours ago

Ground ~20,000 ft ~40,000 ft Winds

PASI

Details ICAO PASI (SIT)
Name SITKA ROCKY GUTIERREZ
Region USA (Alaska)
Timezone America/Juneau (UTC-9.0)
Stats Elevation 21 ft / 6 m (AMSL)
Location 57.047128° -135.361597°
Runways 1
Magnetic Variation 18.748° E

METAR

PASI 182053Z 00000KT 10SM SCT047 SCT070 OVC100 03/03 A2993

Decode

TAF

PASI 181952Z 1820/1918 09005KT P6SM -SHRA SCT015 OVC040 FM190100 07004KT P6SM BKN070

Decode

Departure Runways

ID Width Length Bearing (true) Bearing (mag) Surface Threshold Offset Overrun Length
11 150 ft / 46 m 6,485 ft / 1,977 m 135.57° 116.82° Asphalt 0 ft / 0 m 0 ft / 0 m
29 150 ft / 46 m 6,485 ft / 1,977 m 315.59° 296.84° Asphalt 0 ft / 0 m 0 ft / 0 m

PAKT

Details ICAO PAKT (KTN)
Name KETCHIKAN INTL
Region USA (Alaska)
Timezone Unknown (UTC+0.0)
Stats Elevation 88 ft / 27 m (AMSL)
Location 55.355545° -131.713737°
Runways 1
Magnetic Variation 18.531° E

METAR

PAKT 182053Z 17004KT 10SM -RA SCT008 OVC015 02/01 A2998

Decode

TAF

PAKT 182038Z 1821/1918 14008KT P6SM -SHSNRA BKN015 OVC045 FM190200 VRB06KT P6SM VCSH SCT020 OVC030 FM190800 31005KT P6SM BKN060 FM191000 31005KT 4SM BR SCT005 SCT070 AMD LTD TO CLD VIS AND WIND 1906/1915

Decode

Destination Runways

ID Width Length Bearing (true) Bearing (mag) Surface Threshold Offset Overrun Length
11 150 ft / 46 m 7,485 ft / 2,281 m 135.66° 117.13° Asphalt 0 ft / 0 m 200 ft / 61 m
29 150 ft / 46 m 7,485 ft / 2,281 m 315.68° 297.15° Asphalt 0 ft / 0 m 100 ft / 30 m

Approach Navaids

Runway Type Ident Frequency Range Bearing (true) Bearing (mag) Slope Elevation
11 Localiser IECH 109.30 MHz 18 nm / 33 km 135.69° 117.16° - 66 ft / 20 m (AMSL)
11 Glidescope IECH 109.30 MHz 10 nm / 19 km 135.67° 117.14° 3.61° 76 ft / 23 m (AMSL)
11 DME IECH 109.30 MHz 18 nm / 33 km - - - 98 ft / 30 m (AMSL)

Popular Alternatives